| time (UTC) | temp F | wind direction | speed knots | gust knots | rain 1hr in | rain 24hr in | rain mn in | humidity % | barometer mb |
| 20260507051007 | 59 | 250 | 1.7 | 7.0 | 0.00 | 0.00 | 0.00 | 70 | 1011.1 |
| 20260507045007 | 58 | 161 | 1.7 | 5.2 | 0.00 | 0.00 | 0.00 | 72 | 1011.2 |
| 20260507043006 | 58 | 204 | 2.6 | 2.6 | 0.00 | 0.00 | 0.00 | 74 | 1011.3 |
| 20260507041007 | 59 | 199 | 1.7 | 4.3 | 0.00 | 0.00 | 0.00 | 71 | 1011.3 |
| 20260507034006 | 59 | 198 | 0.0 | 2.6 | 0.00 | 0.00 | 0.00 | 69 | 1011.2 |
| 20260507033007 | 60 | 193 | 0.9 | 2.6 | 0.00 | 0.00 | 0.00 | 69 | 1011.1 |
| 20260507032006 | 61 | 213 | 0.9 | 2.6 | 0.00 | 0.00 | 0.00 | 69 | 1011.0 |
| 20260507025006 | 64 | 215 | 2.6 | 5.2 | 0.00 | 0.00 | 0.00 | 61 | 1011.3 |
| 20260507024006 | 65 | 215 | 0.9 | 4.3 | 0.00 | 0.00 | 0.00 | 59 | 1011.4 |
| 20260507021006 | 67 | 202 | 3.5 | 7.8 | 0.00 | 0.00 | 0.00 | 53 | 1011.5 |
| 20260507020005 | 67 | 217 | 1.7 | 2.6 | 0.00 | 0.00 | 0.00 | 54 | 1011.5 |
| 20260507015006 | 68 | 234 | 1.7 | 4.3 | 0.00 | 0.00 | 0.00 | 49 | 1011.4 |
| 20260507011006 | 69 | 281 | 2.6 | 6.1 | 0.00 | 0.00 | 0.00 | 47 | 1011.5 |
| 20260507004006 | 70 | 256 | 2.6 | 7.0 | 0.00 | 0.00 | 0.00 | 46 | 1011.3 |
| 20260507001006 | 72 | 229 | 1.7 | 7.8 | 0.00 | 0.00 | 0.00 | 47 | 1011.1 |
| 20260506235006 | 72 | 281 | 1.7 | 11.3 | 0.00 | 0.00 | 0.00 | 48 | 1011.1 |
| 20260506233006 | 72 | 308 | 4.3 | 7.8 | 0.00 | 0.00 | 0.00 | 46 | 1011.1 |
| 20260506232006 | 73 | 317 | 3.5 | 8.7 | 0.00 | 0.00 | 0.00 | 47 | 1011.2 |
| 20260506225006 | 72 | 265 | 5.2 | 10.4 | 0.00 | 0.00 | 0.00 | 45 | 1011.6 |
| 20260506223006 | 72 | 211 | 4.3 | 10.4 | 0.00 | 0.00 | 0.00 | 45 | 1011.8 |
| 20260506221007 | 72 | 314 | 4.3 | 13.9 | 0.00 | 0.00 | 0.00 | 46 | 1011.9 |
| 20260506220004 | 73 | 217 | 1.7 | 5.2 | 0.00 | 0.00 | 0.00 | 48 | 1012.0 |
| 20260506213006 | 73 | 237 | 7.8 | 14.8 | 0.00 | 0.00 | 0.00 | 43 | 1012.5 |
| 20260506210005 | 73 | 306 | 5.2 | 11.3 | 0.00 | 0.00 | 0.00 | 44 | 1012.5 |
| 20260506205006 | 73 | 42 | 2.6 | 18.2 | 0.00 | 0.00 | 0.00 | 50 | 1012.7 |
| 20260506200004 | 72 | 204 | 2.6 | 10.4 | 0.00 | 0.00 | 0.00 | 46 | 1012.9 |
| 20260506195006 | 71 | 336 | 2.6 | 11.3 | 0.00 | 0.00 | 0.00 | 46 | 1012.9 |
| 20260506194006 | 72 | 293 | 3.5 | 10.4 | 0.00 | 0.00 | 0.00 | 44 | 1013.0 |
| 20260506193005 | 71 | 286 | 5.2 | 10.4 | 0.00 | 0.00 | 0.00 | 44 | 1013.0 |
| 20260506192006 | 72 | 288 | 5.2 | 14.8 | 0.00 | 0.00 | 0.00 | 42 | 1012.9 |
| 20260506191006 | 72 | 272 | 2.6 | 13.9 | 0.00 | 0.00 | 0.00 | 42 | 1013.0 |
| 20260506190004 | 71 | 228 | 5.2 | 13.0 | 0.00 | 0.00 | 0.00 | 47 | 1013.0 |
| 20260506185005 | 71 | 349 | 2.6 | 13.0 | 0.00 | 0.00 | 0.00 | 46 | 1013.0 |
| 20260506183006 | 71 | 314 | 0.9 | 5.2 | 0.00 | 0.00 | 0.00 | 49 | 1013.2 |
| 20260506182006 | 70 | 19 | 3.5 | 7.0 | 0.00 | 0.00 | 0.00 | 44 | 1013.3 |
| 20260506175006 | 68 | 115 | 3.5 | 8.7 | 0.00 | 0.00 | 0.00 | 45 | 1013.6 |
| 20260506174006 | 68 | 91 | 5.2 | 8.7 | 0.00 | 0.00 | 0.00 | 44 | 1013.8 |
| 20260506173006 | 67 | 94 | 4.3 | 8.7 | 0.00 | 0.00 | 0.00 | 47 | 1013.9 |
| 20260506171007 | 66 | 84 | 4.3 | 8.7 | 0.00 | 0.00 | 0.00 | 46 | 1014.1 |
| 20260506165007 | 64 | 86 | 7.0 | 11.3 | 0.00 | 0.00 | 0.00 | 46 | 1014.1 |
| 20260506163008 | 63 | 96 | 6.1 | 12.2 | 0.00 | 0.00 | 0.00 | 47 | 1014.3 |
| 20260506162007 | 62 | 89 | 7.0 | 10.4 | 0.00 | 0.00 | 0.00 | 49 | 1014.3 |
| 20260506160005 | 60 | 126 | 6.1 | 8.7 | 0.00 | 0.00 | 0.00 | 53 | 1014.5 |
| 20260506155007 | 57 | 87 | 2.6 | 5.2 | 0.00 | 0.00 | 0.00 | 63 | 1014.7 |
| 20260506153007 | 53 | 183 | 2.6 | 2.6 | 0.00 | 0.00 | 0.00 | 68 | 1014.8 |
| 20260506152007 | 52 | 125 | 1.7 | 2.6 | 0.00 | 0.00 | 0.00 | 72 | 1015.1 |
| 20260506151008 | 50 | 127 | 2.6 | 5.2 | 0.00 | 0.00 | 0.00 | 73 | 1015.2 |
| 20260506150006 | 49 | 101 | 1.7 | 2.6 | 0.00 | 0.00 | 0.00 | 74 | 1015.1 |
| 20260506144007 | 46 | 148 | 1.7 | 2.6 | 0.00 | 0.00 | 0.00 | 82 | 1015.4 |
| 20260506143007 | 44 | 149 | 0.0 | 0.0 | 0.00 | 0.00 | 0.00 | 86 | 1015.4 |
| 20260506142007 | 43 | 156 | 0.0 | 0.0 | 0.00 | 0.00 | 0.00 | 87 | 1015.5 |
| 20260506135006 | 37 | 205 | 0.0 | 0.0 | 0.00 | 0.00 | 0.00 | 96 | 1015.6 |
| 20260506134007 | 36 | 205 | 0.0 | 0.0 | 0.00 | 0.00 | 0.00 | 96 | 1015.6 |
| 20260506133007 | 34 | 205 | 0.0 | 0.0 | 0.00 | 0.00 | 0.00 | 95 | 1015.5 |
| 20260506132007 | 33 | 205 | 0.0 | 0.0 | 0.00 | 0.00 | 0.00 | 95 | 1015.6 |
| 20260506123007 | 32 | 205 | 0.0 | 0.0 | 0.00 | 0.00 | 0.00 | 92 | 1015.2 |
| 20260506121007 | 32 | 205 | 0.0 | 0.0 | 0.00 | 0.00 | 0.00 | 91 | 1015.1 |
| 20260506115007 | 33 | 205 | 0.0 | 0.0 | 0.00 | 0.00 | 0.00 | 91 | 1015.0 |
| 20260506114007 | 33 | 205 | 0.0 | 0.0 | 0.00 | 0.00 | 0.00 | 91 | 1014.9 |
| 20260506113007 | 33 | 205 | 0.0 | 0.0 | 0.00 | 0.00 | 0.00 | 91 | 1014.9 |
| 20260506112007 | 33 | 205 | 0.0 | 0.0 | 0.00 | 0.00 | 0.00 | 91 | 1014.9 |
| 20260506105007 | 34 | 205 | 0.0 | 0.0 | 0.00 | 0.00 | 0.00 | 91 | 1014.9 |
| 20260506103007 | 34 | 205 | 0.0 | 0.0 | 0.00 | 0.00 | 0.00 | 90 | 1014.9 |
| 20260506101007 | 35 | 205 | 0.0 | 0.0 | 0.00 | 0.00 | 0.00 | 90 | 1014.9 |
| 20260506095007 | 35 | 205 | 0.0 | 0.0 | 0.00 | 0.00 | 0.00 | 90 | 1014.7 |
| 20260506094007 | 36 | 205 | 0.0 | 0.0 | 0.00 | 0.00 | 0.00 | 90 | 1014.8 |
| 20260506090004 | 37 | 205 | 0.0 | 0.0 | 0.00 | 0.00 | 0.00 | 89 | 1014.7 |
| 20260506084006 | 37 | 205 | 0.9 | 1.7 | 0.00 | 0.00 | 0.00 | 88 | 1014.5 |
| 20260506073007 | 39 | 225 | 0.9 | 1.7 | 0.00 | 0.00 | 0.00 | 87 | 1014.1 |
| 20260506072007 | 39 | 225 | 1.7 | 2.6 | 0.00 | 0.00 | 0.00 | 86 | 1014.0 |
| 20260506071006 | 39 | 225 | 0.9 | 1.7 | 0.00 | 0.00 | 0.00 | 86 | 1013.9 |